createdAt,value
2018-12-13T08:51:54.202Z,2.87
2018-12-13T08:52:54.302Z,2.91
2018-12-13T08:53:55.626Z,2.98
2018-12-13T08:55:00.688Z,3.10
2018-12-13T08:55:54.011Z,2.88
2018-12-13T08:56:53.998Z,2.26
2018-12-13T08:57:54.047Z,2.30
2018-12-13T08:58:56.834Z,1.97
2018-12-13T09:00:02.211Z,1.62
2018-12-13T09:00:54.093Z,1.72
2018-12-13T09:01:54.052Z,2.19
2018-12-13T09:02:53.971Z,1.91
2018-12-13T09:03:54.719Z,1.64
2018-12-13T09:04:53.870Z,1.40
2018-12-13T09:05:53.907Z,1.26
2018-12-13T09:06:53.887Z,1.16
2018-12-13T09:07:53.885Z,1.32
2018-12-13T09:08:53.887Z,1.61
2018-12-13T09:09:53.811Z,1.55
2018-12-13T09:10:53.805Z,2.26
2018-12-13T09:11:53.888Z,2.51
2018-12-13T09:12:53.816Z,2.79
2018-12-13T09:13:53.809Z,2.51
2018-12-13T09:14:53.760Z,2.01
2018-12-13T09:15:53.755Z,2.06
2018-12-13T09:16:53.780Z,2.26
2018-12-13T09:17:53.766Z,2.02
2018-12-13T09:18:53.786Z,2.16
2018-12-13T09:19:53.699Z,1.85
2018-12-13T09:20:53.701Z,1.52
2018-12-13T09:21:53.741Z,1.57
2018-12-13T09:22:53.715Z,1.83
2018-12-13T09:23:53.666Z,1.76
2018-12-13T09:24:53.705Z,1.79
2018-12-13T09:25:53.756Z,1.85
2018-12-13T09:26:53.655Z,1.83
2018-12-13T09:27:53.633Z,1.91
2018-12-13T09:28:53.677Z,2.15
2018-12-13T09:30:17.934Z,2.44
2018-12-13T09:31:30.642Z,2.31
2018-12-13T09:31:53.736Z,1.90
2018-12-13T09:33:36.162Z,2.04
2018-12-13T09:34:18.617Z,2.20
2018-12-13T09:50:12.887Z,2.27
2018-12-13T09:50:48.418Z,2.28
2018-12-13T09:51:48.946Z,2.02
2018-12-13T09:52:48.457Z,1.97
2018-12-13T09:53:49.421Z,2.02
2018-12-13T09:54:50.890Z,1.87
2018-12-13T09:55:48.327Z,1.82
2018-12-13T09:56:48.440Z,1.79
2018-12-13T09:57:48.294Z,1.90
2018-12-13T09:58:48.260Z,1.94
2018-12-13T09:59:48.384Z,1.82
2018-12-13T10:00:48.212Z,1.80
2018-12-13T10:01:48.215Z,1.87
2018-12-13T10:02:48.230Z,1.90
2018-12-13T10:03:48.268Z,2.08
2018-12-13T10:04:48.247Z,2.04
2018-12-13T10:05:48.202Z,2.01
2018-12-13T10:06:48.227Z,2.26
2018-12-13T10:07:48.245Z,2.01
2018-12-13T10:08:48.159Z,2.02
2018-12-13T10:09:48.161Z,1.99
2018-12-13T10:10:48.189Z,2.02
2018-12-13T10:11:48.632Z,1.94
2018-12-13T10:12:48.893Z,2.12
2018-12-13T10:13:48.103Z,2.12
2018-12-13T10:14:51.080Z,1.98
2018-12-13T10:15:48.635Z,2.04
2018-12-13T10:16:49.776Z,1.99
2018-12-13T10:17:55.811Z,2.20
2018-12-13T10:18:49.653Z,2.35
2018-12-13T10:19:54.050Z,2.28
2018-12-13T10:20:49.095Z,2.28
2018-12-13T10:21:48.007Z,2.19
2018-12-13T10:22:48.227Z,2.13
2018-12-13T10:23:47.992Z,2.16
2018-12-13T10:24:48.798Z,2.19
2018-12-13T10:25:47.950Z,2.31
2018-12-13T10:26:47.941Z,2.35
2018-12-13T10:27:49.182Z,2.63
2018-12-13T10:28:48.151Z,2.52
2018-12-13T10:29:47.909Z,2.45
2018-12-13T10:30:48.383Z,2.41
2018-12-13T10:31:47.866Z,2.35
2018-12-13T10:32:47.988Z,2.30
2018-12-13T10:33:47.874Z,2.33
2018-12-13T10:34:47.841Z,2.34
2018-12-13T10:35:48.363Z,2.35
2018-12-13T10:36:47.809Z,2.44
2018-12-13T10:37:47.802Z,2.52
2018-12-13T10:38:53.073Z,2.71
2018-12-13T10:39:48.775Z,2.91
2018-12-13T10:40:47.775Z,2.84
2018-12-13T10:41:47.752Z,2.70
2018-12-13T10:42:47.743Z,2.67
2018-12-13T10:43:48.132Z,2.95
2018-12-13T10:44:47.725Z,2.76
2018-12-13T10:45:47.707Z,2.64
2018-12-13T10:46:47.712Z,2.55
2018-12-13T10:47:47.694Z,2.44
2018-12-13T10:48:47.706Z,2.44
2018-12-13T10:49:47.668Z,2.49
2018-12-13T10:50:47.659Z,2.48
2018-12-13T10:51:47.654Z,2.77
2018-12-13T10:52:47.683Z,2.64
2018-12-13T10:53:47.663Z,2.74
2018-12-13T10:54:47.712Z,2.63
2018-12-13T10:55:47.598Z,2.45
2018-12-13T10:56:47.583Z,2.35
2018-12-13T10:57:47.593Z,2.34
2018-12-13T10:58:47.585Z,2.41
2018-12-13T10:59:47.550Z,2.44
2018-12-13T11:00:47.578Z,2.44
2018-12-13T11:01:47.529Z,2.38
2018-12-13T11:02:47.518Z,2.40
2018-12-13T11:03:47.552Z,2.64
2018-12-13T11:04:47.495Z,2.59
2018-12-13T11:05:47.506Z,2.44
2018-12-13T11:06:47.471Z,2.48
2018-12-13T11:07:47.459Z,2.38
2018-12-13T11:08:47.477Z,2.40
2018-12-13T11:09:47.440Z,2.61
2018-12-13T11:10:47.428Z,2.79
2018-12-13T11:11:47.441Z,2.87
2018-12-13T11:12:47.411Z,3.07
2018-12-13T11:13:47.416Z,3.06
2018-12-13T11:14:47.390Z,2.97
2018-12-13T11:15:47.377Z,2.95
2018-12-13T11:16:47.359Z,2.97
2018-12-13T11:17:47.387Z,3.03
2018-12-13T11:18:47.373Z,2.94
2018-12-13T11:19:47.326Z,2.95
2018-12-13T11:20:47.317Z,2.98
2018-12-13T11:21:47.311Z,2.88
2018-12-13T11:22:47.295Z,2.69
2018-12-13T11:23:47.324Z,2.70
2018-12-13T11:24:47.271Z,2.70
2018-12-13T11:25:47.270Z,2.81
2018-12-13T11:26:47.249Z,2.73
2018-12-13T11:27:47.243Z,2.73
2018-12-13T11:28:47.263Z,2.64
2018-12-13T11:29:47.227Z,2.53
2018-12-13T11:30:47.207Z,2.64
2018-12-13T11:31:47.215Z,2.94
2018-12-13T11:32:47.184Z,2.81
2018-12-13T11:33:47.206Z,2.71
2018-12-13T11:34:47.186Z,2.64
2018-12-13T11:35:47.179Z,2.82
2018-12-13T11:36:47.142Z,2.79
2018-12-13T11:37:47.126Z,2.67
2018-12-13T11:38:47.121Z,2.81
2018-12-13T11:39:47.131Z,2.77
2018-12-13T11:40:47.173Z,2.74
2018-12-13T11:41:47.084Z,2.66
2018-12-13T11:42:47.153Z,2.61
2018-12-13T11:43:47.078Z,2.69
2018-12-13T11:44:47.075Z,2.88
2018-12-13T11:45:47.083Z,2.92
2018-12-13T11:46:47.028Z,2.85
2018-12-13T11:47:47.019Z,2.73
2018-12-13T11:48:47.009Z,2.81
2018-12-13T11:49:47.020Z,2.87
2018-12-13T11:50:46.985Z,2.94
2018-12-13T11:51:46.974Z,3.12
2018-12-13T11:52:47.160Z,3.20
2018-12-13T11:53:47.010Z,3.31
2018-12-13T11:54:46.961Z,3.12
2018-12-13T11:55:46.933Z,2.92
2018-12-13T11:56:46.923Z,2.89
2018-12-13T11:57:46.909Z,2.74
2018-12-13T11:58:46.894Z,2.81
2018-12-13T11:59:46.919Z,2.70
2018-12-13T12:00:46.908Z,2.76
2018-12-13T12:01:46.893Z,2.79
2018-12-13T12:02:46.863Z,2.79
2018-12-13T12:03:46.847Z,2.87
2018-12-13T12:04:47.929Z,2.88
2018-12-13T12:05:46.839Z,2.76
2018-12-13T12:06:46.806Z,2.82
2018-12-13T12:07:46.795Z,2.81
2018-12-13T12:08:46.788Z,2.81
2018-12-13T12:09:46.803Z,2.84
2018-12-13T12:10:46.766Z,2.87
2018-12-13T12:11:46.751Z,2.88
2018-12-13T12:12:46.747Z,2.84
2018-12-13T12:13:46.729Z,3.00
2018-12-13T12:14:46.744Z,2.95
2018-12-13T12:15:46.733Z,2.92
2018-12-13T12:16:46.711Z,2.97
2018-12-13T12:17:46.690Z,2.94
2018-12-13T12:18:46.677Z,2.92
2018-12-13T12:19:46.682Z,2.89
2018-12-13T12:20:46.724Z,2.95
2018-12-13T12:21:46.798Z,3.03
2018-12-13T12:22:46.636Z,3.15
2018-12-13T12:23:46.625Z,3.07
2018-12-13T12:24:46.643Z,3.12
2018-12-13T12:25:46.626Z,3.07
2018-12-13T12:26:46.663Z,2.92
2018-12-13T12:27:46.617Z,3.00
2018-12-13T12:28:46.620Z,2.95
2018-12-13T12:29:46.563Z,3.02
2018-12-13T12:30:46.569Z,3.03
2018-12-13T12:31:46.536Z,3.05
2018-12-13T12:32:46.525Z,3.05
2018-12-13T12:33:46.597Z,3.06
2018-12-13T12:34:46.534Z,3.02
2018-12-13T12:35:46.518Z,3.20
2018-12-13T12:36:46.514Z,3.10
2018-12-13T12:37:46.469Z,3.20
2018-12-13T12:38:46.457Z,3.12
2018-12-13T12:39:46.450Z,3.30
2018-12-13T12:40:46.475Z,3.15
2018-12-13T12:41:46.424Z,3.07
2018-12-13T12:42:46.431Z,2.97
2018-12-13T12:43:46.400Z,3.33
2018-12-13T12:44:46.391Z,3.47
2018-12-13T12:45:46.422Z,3.39
2018-12-13T12:46:46.374Z,3.24
2018-12-13T12:47:46.387Z,3.05
2018-12-13T12:48:46.348Z,2.98
2018-12-13T12:49:46.404Z,2.94
2018-12-13T12:50:46.348Z,2.95
2018-12-13T12:51:46.648Z,2.95
2018-12-13T12:52:46.317Z,2.94
2018-12-13T12:53:46.315Z,2.85
2018-12-13T12:54:46.280Z,2.87
2018-12-13T12:55:46.294Z,2.85
2018-12-13T12:56:46.278Z,2.87
2018-12-13T12:57:46.246Z,2.95
2018-12-13T12:58:46.280Z,3.13
2018-12-13T12:59:46.230Z,3.06
2018-12-13T13:00:46.299Z,3.00
2018-12-13T13:01:46.399Z,2.89
2018-12-13T13:02:47.579Z,2.91
2018-12-13T13:03:46.285Z,2.89
2018-12-13T13:04:46.180Z,2.97
2018-12-13T13:05:46.255Z,3.09
2018-12-13T13:06:46.175Z,2.95
2018-12-13T13:07:46.143Z,2.91
2018-12-13T13:08:46.164Z,2.92
2018-12-13T13:09:46.127Z,2.95
2018-12-13T13:10:46.105Z,2.97
2018-12-13T13:11:46.166Z,2.92
2018-12-13T13:12:46.095Z,2.97
2018-12-13T13:13:46.074Z,2.95
2018-12-13T13:14:46.075Z,2.87
2018-12-13T13:15:46.054Z,2.89
2018-12-13T13:16:46.072Z,2.88
2018-12-13T13:17:46.073Z,2.98
2018-12-13T13:18:46.014Z,3.02
2018-12-13T13:19:46.013Z,3.13
2018-12-13T13:20:46.000Z,3.21
2018-12-13T13:21:46.016Z,3.28
2018-12-13T13:22:45.979Z,3.25
2018-12-13T13:23:46.007Z,3.15
2018-12-13T13:24:45.961Z,3.03
2018-12-13T13:25:45.969Z,2.97
2018-12-13T13:26:45.961Z,2.87
2018-12-13T13:27:45.926Z,2.91
2018-12-13T13:28:45.914Z,2.98
2018-12-13T13:29:45.896Z,2.88
2018-12-13T13:30:45.908Z,2.84
2018-12-13T13:31:45.928Z,2.94
2018-12-13T13:32:45.865Z,2.91
2018-12-13T13:33:45.855Z,3.12
2018-12-13T13:34:45.848Z,2.95
2018-12-13T13:35:45.837Z,3.02
2018-12-13T13:36:45.867Z,3.00
2018-12-13T13:37:45.841Z,3.10
2018-12-13T13:38:45.805Z,2.98
2018-12-13T13:39:45.787Z,2.92
2018-12-13T13:40:45.778Z,2.95
2018-12-13T13:41:45.811Z,3.02
2018-12-13T13:42:46.499Z,3.12
2018-12-13T13:43:45.750Z,3.33
2018-12-13T13:44:45.734Z,3.49
2018-12-13T13:45:45.732Z,3.39
2018-12-13T13:46:45.773Z,3.31
2018-12-13T13:47:45.701Z,3.33
2018-12-13T13:48:45.693Z,3.13
2018-12-13T13:49:45.685Z,3.09
2018-12-13T13:50:45.716Z,2.89
2018-12-13T13:51:45.682Z,2.97
2018-12-13T13:52:45.644Z,2.84
2018-12-13T13:53:45.638Z,2.82
2018-12-13T13:54:45.631Z,2.88
2018-12-13T13:55:45.621Z,2.82
2018-12-13T13:56:45.656Z,2.76
2018-12-13T13:57:45.629Z,2.81
2018-12-13T13:58:45.581Z,3.05
2018-12-13T13:59:45.575Z,3.20
2018-12-13T14:00:45.563Z,3.49
2018-12-13T14:01:45.580Z,3.70
2018-12-13T14:02:45.539Z,3.75
2018-12-13T14:03:45.588Z,3.54
2018-12-13T14:04:45.522Z,3.25
2018-12-13T14:05:45.509Z,3.18
2018-12-13T14:06:45.521Z,3.05
2018-12-13T14:07:45.491Z,2.98
2018-12-13T14:08:45.481Z,2.92
2018-12-13T14:09:45.464Z,3.18
2018-12-13T14:10:45.451Z,3.52
2018-12-13T14:11:45.519Z,3.47
2018-12-13T14:12:45.439Z,3.54
2018-12-13T14:13:45.423Z,3.44
2018-12-13T14:14:45.405Z,3.39
2018-12-13T14:15:45.397Z,3.30
2018-12-13T14:16:45.423Z,3.16
2018-12-13T14:17:45.376Z,3.09
2018-12-13T14:18:45.367Z,3.02
2018-12-13T14:19:45.348Z,2.98
2018-12-13T14:20:45.393Z,2.89
2018-12-13T14:21:45.358Z,2.95
2018-12-13T14:22:45.324Z,2.91
2018-12-13T14:23:45.330Z,3.00
2018-12-13T14:24:45.294Z,2.98
2018-12-13T14:25:45.311Z,3.02
2018-12-13T14:26:45.318Z,2.98
2018-12-13T14:27:45.295Z,2.89
2018-12-13T14:28:45.251Z,2.89
2018-12-13T14:29:45.242Z,2.79
2018-12-13T14:30:45.238Z,2.64
2018-12-13T14:31:45.220Z,2.70
2018-12-13T14:32:45.236Z,2.58
2018-12-13T14:33:45.228Z,2.97
2018-12-13T14:34:45.187Z,3.02
2018-12-13T14:35:45.179Z,2.89
2018-12-13T14:36:45.165Z,2.82
2018-12-13T14:37:45.175Z,2.70
2018-12-13T14:38:45.142Z,2.64
2018-12-13T14:39:45.131Z,2.61
2018-12-13T14:40:45.157Z,2.51
2018-12-13T14:41:45.107Z,2.51
2018-12-13T14:42:45.120Z,2.44
2018-12-13T14:43:45.121Z,2.55
2018-12-13T14:44:45.073Z,2.77
2018-12-13T14:45:45.074Z,2.76
2018-12-13T14:46:45.071Z,2.98
2018-12-13T14:47:45.067Z,2.98
2018-12-13T14:48:45.041Z,3.24
2018-12-13T14:49:45.019Z,3.12
2018-12-13T14:50:45.008Z,3.00
2018-12-13T14:51:45.008Z,3.70
2018-12-13T14:52:45.007Z,3.21
2018-12-13T14:53:44.982Z,3.03
2018-12-13T14:54:44.976Z,3.15
2018-12-13T14:55:44.956Z,2.92
2018-12-13T14:56:44.945Z,2.69
2018-12-13T14:57:44.955Z,2.84
2018-12-13T14:58:44.917Z,2.88
2018-12-13T14:59:47.220Z,2.94
2018-12-13T15:00:44.904Z,3.02
2018-12-13T15:01:44.891Z,3.15
2018-12-13T15:02:44.942Z,3.28
2018-12-13T15:03:44.863Z,3.23
2018-12-13T15:04:44.851Z,3.24
2018-12-13T15:05:44.849Z,3.39
2018-12-13T15:06:44.828Z,3.49
2018-12-13T15:07:44.840Z,3.70
2018-12-13T15:08:44.822Z,3.83
2018-12-13T15:09:50.660Z,4.08
2018-12-13T15:10:45.788Z,4.18
2018-12-13T15:11:44.786Z,4.10
2018-12-13T15:12:44.790Z,4.08
2018-12-13T15:13:44.765Z,4.12
2018-12-13T15:14:44.753Z,3.82
2018-12-13T15:15:44.732Z,3.54
2018-12-13T15:16:44.745Z,3.21
2018-12-13T15:17:44.736Z,2.89
2018-12-13T15:18:44.700Z,2.73
2018-12-13T15:19:44.688Z,2.49
2018-12-13T15:20:44.694Z,2.63
2018-12-13T15:21:44.665Z,2.37
2018-12-13T15:22:44.677Z,2.41
2018-12-13T15:23:44.645Z,2.22
2018-12-13T15:24:44.637Z,2.22
2018-12-13T15:25:44.621Z,2.16
2018-12-13T15:26:44.638Z,2.30
2018-12-13T15:27:44.627Z,2.04
2018-12-13T15:28:44.587Z,1.97
2018-12-13T15:29:45.283Z,1.78
2018-12-13T15:30:44.564Z,1.76
2018-12-13T15:31:44.555Z,1.90
2018-12-13T15:32:44.587Z,1.83
2018-12-13T15:33:44.532Z,1.75
2018-12-13T15:34:44.522Z,1.57
2018-12-13T15:35:44.534Z,1.60
2018-12-13T15:36:44.497Z,1.61
2018-12-13T15:37:44.513Z,1.54
2018-12-13T15:38:44.475Z,1.42
2018-12-13T15:39:44.465Z,1.44
2018-12-13T15:40:44.466Z,1.46
2018-12-13T15:41:44.573Z,1.43
2018-12-13T15:42:44.459Z,1.55
2018-12-13T15:43:44.426Z,1.75
2018-12-13T15:44:44.414Z,1.91
2018-12-13T15:45:44.397Z,2.20
2018-12-13T15:46:44.391Z,2.06
2018-12-13T15:47:44.418Z,1.75
2018-12-13T15:48:44.371Z,1.89
2018-12-13T15:49:44.355Z,2.41
2018-12-13T15:50:44.348Z,2.30
2018-12-13T15:51:44.332Z,2.55
2018-12-13T15:52:44.340Z,2.38
2018-12-13T15:53:44.375Z,2.12
2018-12-13T15:54:44.304Z,2.01
2018-12-13T15:55:44.292Z,2.41
2018-12-13T15:56:44.280Z,2.91
2018-12-13T15:57:44.286Z,2.91
2018-12-13T15:58:44.253Z,2.64
2018-12-13T15:59:44.259Z,2.59
2018-12-13T16:00:44.234Z,2.44
2018-12-13T16:01:44.221Z,2.31
2018-12-13T16:02:44.236Z,2.64
2018-12-13T16:03:44.196Z,2.41
2018-12-13T16:04:44.189Z,2.16
2018-12-13T16:05:44.190Z,1.83
2018-12-13T16:06:44.190Z,1.62
2018-12-13T16:07:44.180Z,2.04
2018-12-13T16:08:44.147Z,2.19
2018-12-13T16:09:44.134Z,2.15
2018-12-13T16:10:44.125Z,1.99
2018-12-13T16:11:44.111Z,1.80
2018-12-13T16:12:44.153Z,1.76
2018-12-13T16:13:44.092Z,1.62
2018-12-13T16:14:44.080Z,1.64
2018-12-13T16:15:44.071Z,1.62
2018-12-13T16:16:44.056Z,1.76
2018-12-13T16:17:44.070Z,1.91
2018-12-13T16:18:44.076Z,1.65
2018-12-13T16:19:44.022Z,1.76
2018-12-13T16:20:44.012Z,1.78
2018-12-13T16:21:43.999Z,1.73
2018-12-13T16:22:43.990Z,1.76
2018-12-13T16:23:44.815Z,1.82
2018-12-13T16:24:43.984Z,1.85
2018-12-13T16:25:43.957Z,1.83
2018-12-13T16:26:43.944Z,1.89
2018-12-13T16:27:43.940Z,1.94
2018-12-13T16:28:43.945Z,1.91
2018-12-13T16:29:43.911Z,1.85
2018-12-13T16:30:43.915Z,1.94
2018-12-13T16:31:43.892Z,1.87
2018-12-13T16:32:43.880Z,2.01
2018-12-13T16:33:43.889Z,1.90
2018-12-13T16:34:43.858Z,1.94
2018-12-13T16:35:43.847Z,1.94
2018-12-13T16:36:43.852Z,1.85
2018-12-13T16:37:43.820Z,2.12
2018-12-13T16:38:43.833Z,2.06
2018-12-13T16:39:43.804Z,2.27
2018-12-13T16:40:43.792Z,2.69
2018-12-13T16:41:43.787Z,2.88
2018-12-13T16:42:43.772Z,2.95
2018-12-13T16:43:43.790Z,3.09
2018-12-13T16:44:43.742Z,2.97
2018-12-13T16:45:43.740Z,2.59
2018-12-13T16:46:43.720Z,2.26
2018-12-13T16:47:43.715Z,2.10
2018-12-13T16:48:45.018Z,2.45
2018-12-13T16:49:43.700Z,2.26
2018-12-13T16:50:43.679Z,2.46
2018-12-13T16:51:43.670Z,3.09
2018-12-13T16:52:43.659Z,3.46
2018-12-13T16:53:43.668Z,3.36
2018-12-13T16:54:43.638Z,3.33
2018-12-13T16:55:43.640Z,3.15
2018-12-13T16:56:43.611Z,3.16
2018-12-13T16:57:43.607Z,3.65
2018-12-13T16:58:43.613Z,3.34
2018-12-13T16:59:43.578Z,3.68
2018-12-13T17:00:43.571Z,3.86
2018-12-13T17:01:43.572Z,3.50
2018-12-13T17:02:43.570Z,3.40
2018-12-13T17:03:43.540Z,3.24
2018-12-13T17:04:43.550Z,3.02
2018-12-13T17:05:43.513Z,3.10
2018-12-13T17:06:43.499Z,2.79
2018-12-13T17:07:43.506Z,2.45
2018-12-13T17:08:43.482Z,2.44
2018-12-13T17:09:43.489Z,2.35
2018-12-13T17:10:43.463Z,2.15
2018-12-13T17:11:43.445Z,2.35
2018-12-13T17:12:43.436Z,2.69
2018-12-13T17:13:43.439Z,2.64
2018-12-13T17:14:43.437Z,2.37
2018-12-13T17:15:43.402Z,2.12
2018-12-13T17:16:43.392Z,1.99
2018-12-13T17:17:43.379Z,1.98
2018-12-13T17:18:43.372Z,2.01
2018-12-13T17:19:43.409Z,2.06
2018-12-13T17:20:43.344Z,1.94
2018-12-13T17:21:43.337Z,2.30
2018-12-13T17:22:43.325Z,2.41
2018-12-13T17:23:43.312Z,2.69
2018-12-13T17:24:43.322Z,2.94
2018-12-13T17:25:43.314Z,2.77
2018-12-13T17:26:43.282Z,2.46
2018-12-13T17:27:43.267Z,2.30
2018-12-13T17:28:43.254Z,2.44
2018-12-13T17:29:43.273Z,2.73
2018-12-13T17:30:43.240Z,2.94
2018-12-13T17:31:43.241Z,3.00
2018-12-13T17:32:43.237Z,2.71
2018-12-13T17:33:43.201Z,2.91
2018-12-13T17:34:43.310Z,2.94
2018-12-13T17:35:43.180Z,3.10
2018-12-13T17:36:43.171Z,2.95
2018-12-13T17:37:43.205Z,2.88
2018-12-13T17:38:43.147Z,2.79
2018-12-13T17:39:43.137Z,2.92
2018-12-13T17:40:43.145Z,2.91
2018-12-13T17:41:43.116Z,2.91
2018-12-13T17:42:43.102Z,2.98
2018-12-13T17:43:43.108Z,2.88
2018-12-13T17:44:43.098Z,2.92
2018-12-13T17:45:43.089Z,2.98
2018-12-13T17:46:43.058Z,2.91
2018-12-13T17:47:43.045Z,3.18
2018-12-13T17:48:43.034Z,3.44
2018-12-13T17:49:43.023Z,3.25
2018-12-13T17:50:43.050Z,3.23
2018-12-13T17:51:43.001Z,3.15
2018-12-13T17:52:43.016Z,3.57
2018-12-13T17:53:42.981Z,3.60
2018-12-13T17:54:42.988Z,3.54
2018-12-13T17:55:42.978Z,3.33
2018-12-13T17:56:42.970Z,2.88
2018-12-13T17:57:42.940Z,2.56
2018-12-13T17:58:42.927Z,2.33
2018-12-13T17:59:42.913Z,2.51
2018-12-13T18:00:42.924Z,2.51
2018-12-13T18:01:42.893Z,2.37
2018-12-13T18:02:42.891Z,2.30
2018-12-13T18:03:42.869Z,2.35
2018-12-13T18:04:42.860Z,2.44
2018-12-13T18:05:42.886Z,2.84
2018-12-13T18:06:42.841Z,2.98
2018-12-13T18:07:42.838Z,2.61
2018-12-13T18:08:42.822Z,2.40
2018-12-13T18:09:42.813Z,2.44
2018-12-13T18:10:42.819Z,2.04
2018-12-13T18:11:42.805Z,1.72
2018-12-13T18:12:42.773Z,1.98
2018-12-13T18:13:42.760Z,2.04
2018-12-13T18:14:42.747Z,2.04
2018-12-13T18:15:42.739Z,2.10
2018-12-13T18:16:43.549Z,2.20
2018-12-13T18:17:42.715Z,2.02
2018-12-13T18:18:42.702Z,2.12
2018-12-13T18:19:42.699Z,2.15
2018-12-13T18:20:42.685Z,2.20
2018-12-13T18:21:42.694Z,2.09
2018-12-13T18:22:42.690Z,1.76
2018-12-13T18:23:42.651Z,1.60
2018-12-13T18:24:42.635Z,1.39
2018-12-13T18:25:42.632Z,1.64
2018-12-13T18:26:42.640Z,2.26
2018-12-13T18:27:42.610Z,2.64
2018-12-13T18:28:42.604Z,2.89
2018-12-13T18:29:42.580Z,2.79
2018-12-13T18:30:42.575Z,2.46
2018-12-13T18:31:42.582Z,2.02
2018-12-13T18:32:42.571Z,1.91
2018-12-13T18:33:42.590Z,1.93
2018-12-13T18:34:42.544Z,1.99
2018-12-13T18:35:42.512Z,1.99
2018-12-13T18:36:42.503Z,1.87
2018-12-13T18:37:42.514Z,2.20
2018-12-13T18:38:42.486Z,3.03
2018-12-13T18:39:42.471Z,3.36
2018-12-13T18:40:42.480Z,3.18
2018-12-13T18:41:42.453Z,2.95
2018-12-13T18:42:42.458Z,2.64
2018-12-13T18:43:42.425Z,2.45
2018-12-13T18:44:42.413Z,2.63
2018-12-13T18:45:42.405Z,2.95
2018-12-13T18:46:42.409Z,3.10
2018-12-13T18:47:42.409Z,3.23
2018-12-13T18:48:42.371Z,3.49
2018-12-13T18:49:42.364Z,3.44
2018-12-13T18:50:42.347Z,2.98
2018-12-13T18:51:42.338Z,2.63
2018-12-13T18:52:42.368Z,3.02
2018-12-13T18:53:42.319Z,2.88
2018-12-13T18:54:42.311Z,2.58
2018-12-13T18:55:42.294Z,2.31
2018-12-13T18:56:42.279Z,2.31
2018-12-13T18:57:42.299Z,2.34
2018-12-13T18:58:42.304Z,2.46
2018-12-13T18:59:42.256Z,3.20
2018-12-13T19:00:42.237Z,3.50
2018-12-13T19:01:42.226Z,3.12
2018-12-13T19:02:42.217Z,2.92
2018-12-13T19:03:42.232Z,2.59
2018-12-13T19:04:42.210Z,2.27
2018-12-13T19:05:42.180Z,2.37
2018-12-13T19:06:42.174Z,2.63
2018-12-13T19:07:42.158Z,2.67
2018-12-13T19:08:43.760Z,2.40
2018-12-13T19:09:42.139Z,2.20
2018-12-13T19:10:42.129Z,2.26
2018-12-13T19:11:42.130Z,2.27
2018-12-13T19:12:42.104Z,2.64
2018-12-13T19:13:42.114Z,2.91
2018-12-13T19:14:42.086Z,2.92
2018-12-13T19:15:42.068Z,2.97
2018-12-13T19:16:42.061Z,3.15
2018-12-13T19:17:42.065Z,3.00
2018-12-13T19:18:42.060Z,3.23
2018-12-13T19:19:42.023Z,3.03
2018-12-13T19:20:42.018Z,2.94
2018-12-13T19:21:42.006Z,3.15
2018-12-13T19:22:41.992Z,3.24
2018-12-13T19:23:42.024Z,3.30
2018-12-13T19:24:41.993Z,3.16
2018-12-13T19:25:41.967Z,3.25
2018-12-13T19:26:41.945Z,3.28
2018-12-13T19:27:41.936Z,3.31
2018-12-13T19:28:41.928Z,3.52
2018-12-13T19:29:41.953Z,3.52
2018-12-13T19:30:41.906Z,3.30
2018-12-13T19:31:41.895Z,3.47
2018-12-13T19:32:41.884Z,3.60
2018-12-13T19:33:41.874Z,3.07
2018-12-13T19:34:41.893Z,2.87
2018-12-13T19:35:41.877Z,2.58
2018-12-13T19:36:41.839Z,2.15
2018-12-13T19:37:41.826Z,1.91
2018-12-13T19:38:41.817Z,2.12
2018-12-13T19:39:41.827Z,2.02
2018-12-13T19:40:48.182Z,1.97
2018-12-13T19:41:42.803Z,1.97
2018-12-13T19:42:41.775Z,2.16
2018-12-13T19:43:41.762Z,2.06
2018-12-13T19:44:41.773Z,2.01
2018-12-13T19:45:41.748Z,2.30
2018-12-13T19:46:41.728Z,2.64
2018-12-13T19:47:41.744Z,2.74
2018-12-13T19:48:41.709Z,3.33
2018-12-13T19:49:41.719Z,3.60
2018-12-13T19:50:41.684Z,3.68
2018-12-13T19:51:41.675Z,3.86
2018-12-13T19:52:41.658Z,4.01
2018-12-13T19:53:41.689Z,3.79
2018-12-13T19:54:41.663Z,3.79
2018-12-13T19:55:41.626Z,3.79
2018-12-13T19:56:41.617Z,3.09
2018-12-13T19:57:41.609Z,2.66
2018-12-13T19:58:41.597Z,2.26
2018-12-13T19:59:41.632Z,2.09
2018-12-13T20:00:41.573Z,1.89
2018-12-13T20:01:41.561Z,1.65
2018-12-13T20:02:41.551Z,1.54
2018-12-13T20:03:41.542Z,1.43
2018-12-13T20:04:41.622Z,1.52
2018-12-13T20:05:41.549Z,1.91
2018-12-13T20:06:41.509Z,1.73
2018-12-13T20:07:41.498Z,1.61
2018-12-13T20:08:41.506Z,1.62
2018-12-13T20:09:41.481Z,2.70
2018-12-13T20:10:41.488Z,3.00
2018-12-13T20:11:41.476Z,3.76
2018-12-13T20:12:41.440Z,3.80
2018-12-13T20:13:41.430Z,3.72
2018-12-13T20:14:41.418Z,3.23
2018-12-13T20:15:41.427Z,2.91
2018-12-13T20:16:41.393Z,2.26
2018-12-13T20:17:41.397Z,1.98
2018-12-13T20:18:41.375Z,2.13
2018-12-13T20:19:41.364Z,2.67
2018-12-13T20:20:41.376Z,3.09
2018-12-13T20:21:41.348Z,3.09
2018-12-13T20:22:41.329Z,2.94
2018-12-13T20:23:41.327Z,2.77
2018-12-13T20:24:41.333Z,2.56
2018-12-13T20:25:41.325Z,1.99
2018-12-13T20:26:41.287Z,1.93
2018-12-13T20:27:41.277Z,2.15
2018-12-13T20:28:41.266Z,2.73
2018-12-13T20:29:41.254Z,2.41
2018-12-13T20:30:41.286Z,2.41
2018-12-13T20:31:41.237Z,2.55
2018-12-13T20:32:41.225Z,2.56
2018-12-13T20:33:41.212Z,2.23
2018-12-13T20:34:41.199Z,2.12
2018-12-13T20:35:41.217Z,2.77
2018-12-13T20:36:41.186Z,2.98
2018-12-13T20:37:41.168Z,2.71
2018-12-13T20:38:41.153Z,2.67
2018-12-13T20:39:41.143Z,2.49
2018-12-13T20:40:41.160Z,2.30
2018-12-13T20:41:41.123Z,1.98
2018-12-13T20:42:41.128Z,1.64
2018-12-13T20:43:41.106Z,1.52
2018-12-13T20:44:41.088Z,1.44
2018-12-13T20:45:41.099Z,1.37
2018-12-13T20:46:41.065Z,1.36
2018-12-13T20:47:41.055Z,1.50
2018-12-13T20:48:41.052Z,2.23
2018-12-13T20:49:41.031Z,2.53
2018-12-13T20:50:41.050Z,2.30
2018-12-13T20:51:41.009Z,2.70
2018-12-13T20:52:41.000Z,2.64
2018-12-13T20:53:40.990Z,2.56
2018-12-13T20:54:41.010Z,2.67
2018-12-13T20:55:40.994Z,3.12
2018-12-13T20:56:40.955Z,3.33
2018-12-13T20:57:40.948Z,2.98
2018-12-13T20:58:40.934Z,3.03
2018-12-13T20:59:40.923Z,2.98
2018-12-13T21:00:40.944Z,2.98
2018-12-13T21:01:40.900Z,2.66
2018-12-13T21:02:40.889Z,2.64
2018-12-13T21:03:40.878Z,2.22
2018-12-13T21:04:40.864Z,2.02
2018-12-13T21:05:40.879Z,2.35
2018-12-13T21:06:40.881Z,2.87
2018-12-13T21:07:40.835Z,3.68
2018-12-13T21:08:40.833Z,3.46
2018-12-13T21:09:40.814Z,3.28
2018-12-13T21:10:40.826Z,3.54
2018-12-13T21:11:40.790Z,3.70
2018-12-13T21:12:40.799Z,3.49
2018-12-13T21:13:40.769Z,3.42
2018-12-13T21:14:40.760Z,3.39
2018-12-13T21:15:40.771Z,2.82
2018-12-13T21:16:40.741Z,2.98
2018-12-13T21:17:40.727Z,2.79
2018-12-13T21:18:40.726Z,2.81
2018-12-13T21:19:40.732Z,2.44
2018-12-13T21:20:40.720Z,2.74
2018-12-13T21:21:40.678Z,2.88
2018-12-13T21:22:40.669Z,2.81
2018-12-13T21:23:40.660Z,2.58
2018-12-13T21:24:40.646Z,2.82
2018-12-13T21:25:40.677Z,3.03
2018-12-13T21:26:40.625Z,3.34
2018-12-13T21:27:40.616Z,2.94
2018-12-13T21:28:40.603Z,2.45
2018-12-13T21:29:40.593Z,2.27
2018-12-13T21:30:40.606Z,2.64
2018-12-13T21:31:40.589Z,2.23
2018-12-13T21:32:40.565Z,2.41
2018-12-13T21:33:40.546Z,2.40
2018-12-13T21:34:40.567Z,2.45
2018-12-13T21:35:40.526Z,2.27
2018-12-13T21:36:40.539Z,1.98
2018-12-13T21:37:40.522Z,1.89
2018-12-13T21:38:40.495Z,1.82
2018-12-13T21:39:40.482Z,1.89
2018-12-13T21:40:40.474Z,2.17
2018-12-13T21:41:40.486Z,2.33
2018-12-13T21:42:40.448Z,2.27
2018-12-13T21:43:40.448Z,1.99
2018-12-13T21:44:40.424Z,2.16
2018-12-13T21:45:40.418Z,2.53
2018-12-13T21:46:40.435Z,2.92
2018-12-13T21:47:40.404Z,2.66
2018-12-13T21:48:40.381Z,2.49
2018-12-13T21:49:40.395Z,2.01
2018-12-13T21:50:40.362Z,1.90
2018-12-13T21:51:40.373Z,1.87
2018-12-13T21:52:40.338Z,1.78
2018-12-13T21:53:40.328Z,2.38
2018-12-13T21:54:40.316Z,2.33
2018-12-13T21:55:40.318Z,2.22
2018-12-13T21:56:40.319Z,2.84
2018-12-13T21:57:40.285Z,3.09
2018-12-13T21:58:40.274Z,3.46
2018-12-13T21:59:40.260Z,3.40
2018-12-13T22:00:40.250Z,3.79
2018-12-13T22:01:40.285Z,3.40
2018-12-13T22:02:40.227Z,2.89
2018-12-13T22:03:40.217Z,2.74
2018-12-13T22:04:40.227Z,2.37
2018-12-13T22:05:40.195Z,1.98
2018-12-13T22:06:40.184Z,1.75
2018-12-13T22:07:40.216Z,1.79
2018-12-13T22:08:40.164Z,1.60
2018-12-13T22:09:40.154Z,1.62
2018-12-13T22:10:40.138Z,2.08
2018-12-13T22:11:40.135Z,2.26
2018-12-13T22:12:40.141Z,2.19
2018-12-13T22:13:40.121Z,2.30
2018-12-13T22:14:40.095Z,2.08
2018-12-13T22:15:40.085Z,1.97
2018-12-13T22:16:40.074Z,1.73
2018-12-13T22:17:40.089Z,1.65
2018-12-13T22:18:40.054Z,1.61
2018-12-13T22:19:40.077Z,1.60
2018-12-13T22:20:40.034Z,1.54
2018-12-13T22:21:40.020Z,1.54
2018-12-13T22:22:40.028Z,1.54
2018-12-13T22:23:39.998Z,1.57
2018-12-13T22:24:39.989Z,1.44